createdAt,value
2023-01-12T00:02:12.403Z,8.40
2023-01-12T00:04:40.566Z,8.40
2023-01-12T00:07:09.476Z,8.30
2023-01-12T00:09:37.688Z,8.40
2023-01-12T00:12:07.136Z,8.40
2023-01-12T00:14:35.770Z,8.40
2023-01-12T00:17:06.323Z,8.40
2023-01-12T00:19:36.909Z,8.40
2023-01-12T00:22:11.521Z,8.40
2023-01-12T00:24:41.191Z,8.40
2023-01-12T00:27:11.140Z,8.30
2023-01-12T00:29:39.391Z,8.20
2023-01-12T00:32:09.109Z,8.10
2023-01-12T00:34:37.173Z,8.10
2023-01-12T00:37:05.394Z,8.00
2023-01-12T00:39:33.638Z,8.00
2023-01-12T00:42:19.300Z,7.90
2023-01-12T00:45:04.602Z,8.00
2023-01-12T00:47:34.241Z,7.80
2023-01-12T00:50:02.264Z,7.80
2023-01-12T00:52:31.639Z,7.80
2023-01-12T00:55:00.848Z,7.90
2023-01-12T00:57:29.599Z,7.80
2023-01-12T00:59:59.454Z,7.80
2023-01-12T01:02:28.168Z,7.80
2023-01-12T01:04:57.616Z,7.90
2023-01-12T01:07:25.781Z,7.90
2023-01-12T01:09:54.009Z,7.90
2023-01-12T01:12:22.296Z,8.10
2023-01-12T01:14:50.396Z,8.00
2023-01-12T01:17:18.447Z,7.90
2023-01-12T01:19:46.683Z,8.10
2023-01-12T01:22:16.139Z,8.20
2023-01-12T01:24:44.220Z,8.10
2023-01-12T01:27:12.259Z,8.20
2023-01-12T01:29:40.542Z,8.20
2023-01-12T01:32:08.719Z,8.30
2023-01-12T01:34:37.334Z,8.40
2023-01-12T01:37:05.457Z,8.40
2023-01-12T01:39:34.877Z,8.40
2023-01-12T01:42:02.964Z,8.20
2023-01-12T01:44:51.851Z,8.40
2023-01-12T01:47:26.779Z,8.30
2023-01-12T01:49:57.728Z,8.20
2023-01-12T01:52:29.964Z,8.30
2023-01-12T01:55:06.167Z,8.20
2023-01-12T01:57:41.386Z,8.10
2023-01-12T02:00:11.930Z,8.00
2023-01-12T02:02:42.071Z,8.00
2023-01-12T02:05:11.143Z,8.00
2023-01-12T02:07:39.779Z,8.00
2023-01-12T02:10:10.776Z,7.90
2023-01-12T02:12:56.889Z,7.90
2023-01-12T02:15:46.838Z,7.90
2023-01-12T02:18:22.615Z,7.90
2023-01-12T02:21:36.323Z,7.90
2023-01-12T02:24:31.566Z,8.00
2023-01-12T02:27:22.567Z,7.90
2023-01-12T02:30:16.276Z,8.00
2023-01-12T02:32:56.418Z,8.00
2023-01-12T02:35:30.434Z,8.10
2023-01-12T02:38:11.645Z,8.10
2023-01-12T02:40:48.006Z,8.20
2023-01-12T02:43:23.096Z,8.20
2023-01-12T02:45:56.074Z,8.20
2023-01-12T02:48:31.310Z,8.30
2023-01-12T02:51:05.345Z,8.30
2023-01-12T02:53:43.252Z,8.30
2023-01-12T02:56:12.786Z,8.60
2023-01-12T02:58:46.014Z,8.30
2023-01-12T03:01:17.983Z,8.40
2023-01-12T03:03:49.095Z,8.50
2023-01-12T03:06:17.657Z,8.50
2023-01-12T03:08:47.308Z,8.50
2023-01-12T03:11:17.268Z,8.50
2023-01-12T03:13:49.518Z,8.60
2023-01-12T03:16:21.229Z,8.50
2023-01-12T03:18:55.398Z,8.50
2023-01-12T03:21:30.247Z,8.60
2023-01-12T03:24:04.727Z,8.60
2023-01-12T03:26:36.614Z,8.80
2023-01-12T03:29:08.948Z,8.60
2023-01-12T03:31:38.499Z,8.60
2023-01-12T03:34:08.546Z,8.60
2023-01-12T03:36:46.951Z,8.60
2023-01-12T03:39:22.791Z,8.60
2023-01-12T03:41:58.165Z,8.60
2023-01-12T03:44:35.009Z,8.60
2023-01-12T03:47:08.536Z,8.60
2023-01-12T03:49:43.563Z,8.60
2023-01-12T03:52:14.124Z,8.60
2023-01-12T03:54:44.171Z,8.50
2023-01-12T03:57:14.251Z,8.50
2023-01-12T03:59:42.641Z,8.50
2023-01-12T04:02:11.116Z,8.30
2023-01-12T04:04:40.529Z,8.40
2023-01-12T04:07:08.755Z,8.40
2023-01-12T04:09:37.605Z,8.40
2023-01-12T04:12:10.679Z,8.60
2023-01-12T04:14:39.708Z,8.30
2023-01-12T04:17:08.267Z,8.30
2023-01-12T04:19:36.330Z,8.30
2023-01-12T04:22:23.298Z,8.30
2023-01-12T04:24:51.370Z,8.40
2023-01-12T04:27:19.827Z,8.20
2023-01-12T04:29:49.886Z,8.20
2023-01-12T04:32:17.988Z,8.30
2023-01-12T04:34:46.373Z,8.20
2023-01-12T04:37:16.042Z,8.20
2023-01-12T04:39:44.122Z,8.20
2023-01-12T04:42:32.191Z,8.10
2023-01-12T04:45:00.257Z,8.10
2023-01-12T04:47:28.381Z,8.10
2023-01-12T04:49:56.624Z,8.10
2023-01-12T04:52:26.159Z,8.10
2023-01-12T04:54:56.694Z,8.10
2023-01-12T04:57:25.216Z,8.10
2023-01-12T04:59:53.266Z,8.20
2023-01-12T05:02:21.530Z,8.20
2023-01-12T05:04:49.645Z,8.10
2023-01-12T05:07:18.384Z,8.20
2023-01-12T05:10:05.168Z,8.20
2023-01-12T05:12:33.473Z,8.20
2023-01-12T05:15:01.463Z,8.30
2023-01-12T05:17:29.525Z,8.30
2023-01-12T05:20:00.611Z,8.20
2023-01-12T05:22:29.016Z,8.30
2023-01-12T05:24:58.457Z,8.30
2023-01-12T05:27:26.489Z,8.50
2023-01-12T05:29:57.030Z,8.30
2023-01-12T05:32:25.439Z,8.30
2023-01-12T05:34:53.539Z,8.40
2023-01-12T05:37:21.556Z,8.40
2023-01-12T05:39:49.572Z,8.40
2023-01-12T05:42:36.152Z,8.40
2023-01-12T05:45:04.357Z,8.50
2023-01-12T05:47:32.336Z,8.40
2023-01-12T05:50:00.394Z,8.50
2023-01-12T05:52:28.409Z,8.60
2023-01-12T05:54:56.536Z,8.50
2023-01-12T05:57:25.975Z,8.50
2023-01-12T05:59:54.045Z,8.50
2023-01-12T06:02:22.201Z,8.40
2023-01-12T06:04:50.562Z,8.50
2023-01-12T06:07:19.872Z,8.50
2023-01-12T06:09:47.886Z,8.50
2023-01-12T06:12:33.522Z,8.40
2023-01-12T06:15:02.928Z,8.40
2023-01-12T06:17:32.172Z,8.50
2023-01-12T06:20:00.251Z,8.50
2023-01-12T06:22:28.307Z,8.50
2023-01-12T06:24:56.301Z,8.40
2023-01-12T06:27:24.510Z,8.40
2023-01-12T06:29:52.604Z,8.40
2023-01-12T06:32:21.955Z,8.30
2023-01-12T06:34:49.962Z,8.40
2023-01-12T06:37:18.011Z,8.30
2023-01-12T06:39:46.140Z,8.30
2023-01-12T06:42:32.921Z,8.10
2023-01-12T06:45:03.852Z,8.20
2023-01-12T06:47:33.765Z,8.30
2023-01-12T06:50:01.944Z,8.20
2023-01-12T06:52:30.328Z,8.20
2023-01-12T06:54:59.347Z,8.10
2023-01-12T06:57:27.538Z,8.10
2023-01-12T06:59:56.422Z,8.10
2023-01-12T07:02:24.449Z,8.10
2023-01-12T07:04:54.145Z,8.00
2023-01-12T07:07:22.218Z,8.10
2023-01-12T07:09:50.241Z,8.00
2023-01-12T07:12:18.482Z,8.00
2023-01-12T07:14:46.538Z,7.90
2023-01-12T07:17:14.692Z,8.00
2023-01-12T07:19:43.432Z,7.90
2023-01-12T07:22:12.900Z,8.00
2023-01-12T07:24:40.951Z,7.90
2023-01-12T07:27:09.010Z,7.90
2023-01-12T07:29:37.068Z,8.20
2023-01-12T07:32:05.553Z,7.80
2023-01-12T07:34:33.667Z,7.80
2023-01-12T07:37:01.780Z,7.90
2023-01-12T07:39:31.331Z,7.70
2023-01-12T07:42:16.706Z,7.70
2023-01-12T07:44:44.806Z,7.70
2023-01-12T07:47:12.872Z,7.80
2023-01-12T07:49:40.909Z,7.80
2023-01-12T07:52:11.539Z,7.80
2023-01-12T07:54:43.578Z,7.90
2023-01-12T07:57:14.883Z,7.90
2023-01-12T07:59:43.074Z,7.80
2023-01-12T08:02:16.579Z,7.80
2023-01-12T08:04:44.982Z,8.00
2023-01-12T08:07:13.590Z,7.90
2023-01-12T08:09:43.196Z,7.90
2023-01-12T08:12:11.415Z,8.00
2023-01-12T08:14:41.967Z,8.00
2023-01-12T08:17:15.775Z,7.90
2023-01-12T08:19:49.718Z,8.10
2023-01-12T08:22:22.545Z,8.30
2023-01-12T08:24:57.582Z,8.30
2023-01-12T08:27:30.187Z,8.40
2023-01-12T08:30:00.018Z,8.50
2023-01-12T08:32:29.944Z,8.50
2023-01-12T08:35:01.840Z,8.70
2023-01-12T08:37:31.041Z,8.60
2023-01-12T08:40:00.818Z,8.90
2023-01-12T08:42:31.621Z,8.80
2023-01-12T08:45:00.112Z,8.80
2023-01-12T08:47:30.521Z,8.90
2023-01-12T08:50:00.361Z,9.00
2023-01-12T08:52:31.775Z,8.90
2023-01-12T08:55:01.363Z,8.90
2023-01-12T08:57:29.549Z,9.00
2023-01-12T08:59:57.803Z,9.10
2023-01-12T09:02:27.445Z,9.20
2023-01-12T09:04:55.644Z,9.30
2023-01-12T09:07:24.249Z,9.30
2023-01-12T09:09:53.401Z,9.30
2023-01-12T09:12:24.509Z,9.40
2023-01-12T09:14:54.147Z,9.40
2023-01-12T09:17:24.152Z,9.40
2023-01-12T09:19:52.460Z,9.40
2023-01-12T09:22:20.889Z,9.50
2023-01-12T09:24:49.133Z,9.50
2023-01-12T09:27:17.266Z,9.60
2023-01-12T09:29:46.919Z,9.40
2023-01-12T09:32:16.885Z,9.40
2023-01-12T09:34:48.514Z,9.40
2023-01-12T09:37:16.674Z,9.70
2023-01-12T09:39:44.868Z,9.40
2023-01-12T09:42:36.527Z,9.50
2023-01-12T09:45:35.776Z,9.50
2023-01-12T09:48:04.352Z,9.50
2023-01-12T09:50:35.972Z,9.50
2023-01-12T09:53:09.838Z,9.60
2023-01-12T09:55:48.774Z,9.60
2023-01-12T09:58:31.512Z,9.50
2023-01-12T10:01:03.739Z,9.70
2023-01-12T10:03:35.803Z,9.80
2023-01-12T10:06:04.123Z,9.80
2023-01-12T10:08:35.899Z,9.80
2023-01-12T10:11:13.058Z,9.80
2023-01-12T10:14:01.821Z,9.80
2023-01-12T10:16:37.340Z,9.70
2023-01-12T10:19:12.316Z,9.70
2023-01-12T10:21:42.732Z,9.70
2023-01-12T10:24:14.046Z,9.80
2023-01-12T10:26:44.313Z,9.70
2023-01-12T10:29:13.168Z,9.90
2023-01-12T10:31:42.559Z,9.70
2023-01-12T10:34:12.115Z,9.70
2023-01-12T10:36:44.453Z,9.70
2023-01-12T10:39:30.004Z,9.80
2023-01-12T10:42:37.007Z,9.70
2023-01-12T10:45:20.752Z,9.70
2023-01-12T10:47:53.563Z,9.60
2023-01-12T10:50:24.484Z,9.60
2023-01-12T10:52:57.511Z,9.60
2023-01-12T10:55:30.116Z,9.50
2023-01-12T10:57:58.294Z,9.60
2023-01-12T11:00:28.520Z,9.60
2023-01-12T11:02:58.254Z,9.50
2023-01-12T11:05:34.151Z,9.50
2023-01-12T11:08:02.588Z,9.50
2023-01-12T11:10:33.231Z,9.50
2023-01-12T11:13:03.531Z,9.60
2023-01-12T11:15:35.710Z,9.50
2023-01-12T11:18:32.324Z,9.50
2023-01-12T11:21:04.161Z,9.40
2023-01-12T11:23:40.162Z,9.50
2023-01-12T11:26:18.482Z,9.50
2023-01-12T11:28:50.144Z,9.50
2023-01-12T11:31:23.698Z,9.50
2023-01-12T11:33:58.357Z,9.40
2023-01-12T11:36:30.145Z,9.40
2023-01-12T11:39:03.304Z,9.50
2023-01-12T11:41:38.636Z,9.50
2023-01-12T11:44:15.181Z,9.50
2023-01-12T11:46:47.403Z,9.50
2023-01-12T11:49:24.092Z,9.50
2023-01-12T11:51:56.820Z,9.50
2023-01-12T11:54:27.167Z,9.60
2023-01-12T11:57:38.061Z,9.60
2023-01-12T12:00:23.409Z,9.60
2023-01-12T12:03:00.948Z,9.60
2023-01-12T12:05:42.121Z,9.70
2023-01-12T12:08:25.813Z,9.70
2023-01-12T12:10:58.106Z,9.70
2023-01-12T12:13:34.359Z,9.70
2023-01-12T12:16:17.747Z,9.70
2023-01-12T12:19:12.718Z,9.80
2023-01-12T12:21:49.624Z,9.80
2023-01-12T12:24:38.061Z,9.70
2023-01-12T12:27:15.700Z,9.80
2023-01-12T12:30:22.142Z,9.80
2023-01-12T12:33:00.213Z,9.90
2023-01-12T12:35:45.092Z,9.90
2023-01-12T12:38:28.545Z,9.90
2023-01-12T12:41:25.749Z,10.00
2023-01-12T12:44:19.273Z,10.00
2023-01-12T12:46:56.443Z,10.00
2023-01-12T12:49:29.553Z,10.00
2023-01-12T12:51:58.471Z,10.00
2023-01-12T12:54:29.044Z,10.10
2023-01-12T12:56:57.913Z,10.10
2023-01-12T12:59:56.751Z,10.20
2023-01-12T13:02:55.685Z,10.10
2023-01-12T13:05:42.842Z,10.10
2023-01-12T13:08:22.984Z,10.10
2023-01-12T13:10:57.361Z,10.10
2023-01-12T13:13:31.748Z,10.10
2023-01-12T13:16:39.315Z,10.20
2023-01-12T13:19:13.567Z,10.10
2023-01-12T13:21:58.137Z,10.20
2023-01-12T13:24:40.512Z,10.20
2023-01-12T13:27:46.033Z,10.20
2023-01-12T13:30:25.550Z,10.20
2023-01-12T13:33:01.719Z,10.20
2023-01-12T13:36:01.302Z,10.20
2023-01-12T13:38:49.072Z,10.30
2023-01-12T13:41:42.838Z,10.30
2023-01-12T13:44:15.479Z,10.30
2023-01-12T13:46:48.268Z,10.30
2023-01-12T13:49:28.554Z,10.30
2023-01-12T13:52:04.163Z,10.40
2023-01-12T13:54:33.669Z,10.40
2023-01-12T13:57:03.944Z,10.40
2023-01-12T13:59:32.928Z,10.40
2023-01-12T14:02:03.087Z,10.50
2023-01-12T14:04:50.675Z,10.30
2023-01-12T14:07:42.252Z,10.30
2023-01-12T14:10:24.933Z,10.20
2023-01-12T14:13:21.513Z,10.20
2023-01-12T14:16:07.551Z,10.10
2023-01-12T14:18:47.723Z,10.20
2023-01-12T14:21:26.097Z,10.10
2023-01-12T14:23:54.501Z,10.10
2023-01-12T14:26:25.769Z,10.00
2023-01-12T14:28:54.253Z,10.00
2023-01-12T14:31:31.849Z,10.10
2023-01-12T14:34:04.286Z,9.90
2023-01-12T14:36:42.470Z,10.00
2023-01-12T14:39:20.680Z,10.00
2023-01-12T14:42:08.118Z,9.90
2023-01-12T14:44:57.728Z,9.90
2023-01-12T14:47:27.376Z,10.00
2023-01-12T14:49:57.131Z,9.90
2023-01-12T14:52:30.987Z,9.80
2023-01-12T14:55:18.316Z,9.90
2023-01-12T14:57:51.089Z,9.90
2023-01-12T15:00:22.929Z,9.90
2023-01-12T15:02:53.102Z,9.80
2023-01-12T15:05:26.470Z,9.80
2023-01-12T15:07:57.212Z,9.80
2023-01-12T15:10:33.961Z,9.80
2023-01-12T15:13:23.651Z,9.80
2023-01-12T15:16:09.917Z,9.80
2023-01-12T15:18:55.852Z,9.80
2023-01-12T15:21:43.552Z,9.80
2023-01-12T15:24:39.576Z,9.80
2023-01-12T15:27:08.742Z,9.80
2023-01-12T15:29:37.063Z,9.80
2023-01-12T15:32:06.700Z,9.80
2023-01-12T15:34:35.039Z,9.70
2023-01-12T15:37:04.672Z,9.70
2023-01-12T15:39:32.925Z,9.70
2023-01-12T15:42:21.478Z,9.80
2023-01-12T15:44:50.725Z,9.80
2023-01-12T15:47:20.026Z,9.80
2023-01-12T15:49:49.568Z,9.80
2023-01-12T15:52:21.813Z,9.80
2023-01-12T15:54:50.398Z,9.80
2023-01-12T15:57:19.264Z,9.90
2023-01-12T15:59:47.457Z,9.80
2023-01-12T16:02:32.414Z,9.80
2023-01-12T16:05:00.633Z,9.80
2023-01-12T16:07:30.461Z,9.80
2023-01-12T16:09:58.819Z,9.80
2023-01-12T16:12:27.282Z,9.90
2023-01-12T16:14:56.625Z,9.90
2023-01-12T16:17:24.870Z,9.80
2023-01-12T16:19:53.092Z,9.80
2023-01-12T16:22:23.124Z,9.80
2023-01-12T16:24:53.834Z,9.80
2023-01-12T16:27:23.897Z,9.70
2023-01-12T16:29:52.053Z,9.70
2023-01-12T16:32:23.996Z,9.70
2023-01-12T16:34:52.641Z,9.70
2023-01-12T16:41:34.617Z,9.70
2023-01-12T16:58:42.100Z,9.70
2023-01-12T17:02:09.864Z,9.60
2023-01-12T17:12:35.062Z,9.70
2023-01-12T17:19:30.253Z,9.80
2023-01-12T17:33:41.789Z,9.80
2023-01-12T17:41:53.712Z,9.70
2023-01-12T17:45:25.593Z,9.80
2023-01-12T17:48:57.445Z,9.70
2023-01-12T18:06:15.203Z,9.60
2023-01-12T18:25:04.697Z,9.70
2023-01-12T18:31:46.601Z,9.70
2023-01-12T18:35:31.811Z,9.70
2023-01-12T18:42:00.467Z,9.60
2023-01-12T18:48:23.760Z,9.70
2023-01-12T18:51:33.779Z,9.70
2023-01-12T18:54:31.857Z,9.70
2023-01-12T18:57:55.930Z,9.70
2023-01-12T19:05:29.580Z,9.60
2023-01-12T19:08:33.326Z,9.60
2023-01-12T19:15:14.420Z,9.60
2023-01-12T19:18:25.541Z,9.60
2023-01-12T19:21:48.212Z,9.60
2023-01-12T19:28:57.343Z,9.60
2023-01-12T19:32:17.898Z,9.60
2023-01-12T19:39:04.466Z,9.70
2023-01-12T19:42:12.807Z,9.70
2023-01-12T19:48:43.973Z,9.80
2023-01-12T19:54:56.624Z,9.70
2023-01-12T20:01:33.731Z,9.70
2023-01-12T20:05:14.847Z,9.30
2023-01-12T20:08:14.159Z,9.70
2023-01-12T20:17:36.988Z,9.80
2023-01-12T20:20:34.915Z,9.50
2023-01-12T20:23:35.144Z,9.80
2023-01-12T20:26:55.407Z,9.70
2023-01-12T20:30:36.593Z,9.90
2023-01-12T20:36:35.001Z,9.70
2023-01-12T20:39:54.129Z,9.70
2023-01-12T20:43:01.993Z,9.60
2023-01-12T20:45:37.362Z,9.60
2023-01-12T20:48:48.641Z,9.70
2023-01-12T20:55:09.061Z,9.70
2023-01-12T20:57:55.365Z,9.80
2023-01-12T21:01:14.073Z,9.60
2023-01-12T21:04:26.655Z,9.70
2023-01-12T21:07:31.014Z,9.40
2023-01-12T21:10:29.279Z,9.50
2023-01-12T21:14:34.152Z,9.70
2023-01-12T21:17:03.203Z,9.70
2023-01-12T21:19:44.007Z,9.70
2023-01-12T21:23:14.845Z,9.70
2023-01-12T21:29:39.771Z,9.70
2023-01-12T21:32:59.245Z,9.80
2023-01-12T21:36:33.269Z,9.80
2023-01-12T21:39:39.057Z,9.80
2023-01-12T21:43:03.241Z,9.70
2023-01-12T21:46:17.131Z,9.80
2023-01-12T21:52:42.209Z,10.00
2023-01-12T21:55:26.711Z,9.80
2023-01-12T22:01:38.117Z,9.90
2023-01-12T22:04:51.982Z,9.70
2023-01-12T22:08:00.265Z,9.70
2023-01-12T22:17:56.106Z,9.70
2023-01-12T22:20:59.068Z,9.50
2023-01-12T22:24:44.944Z,9.80
2023-01-12T22:33:45.462Z,9.80
2023-01-12T22:39:32.728Z,9.90
2023-01-12T22:42:00.938Z,9.90
2023-01-12T22:44:29.065Z,9.90
2023-01-12T22:46:57.255Z,9.90
2023-01-12T22:49:26.981Z,10.00
2023-01-12T22:51:55.584Z,10.00
2023-01-12T22:54:23.720Z,10.00
2023-01-12T22:56:51.809Z,10.10
2023-01-12T22:59:20.120Z,9.90
2023-01-12T23:01:48.149Z,10.00
2023-01-12T23:04:16.394Z,10.00
2023-01-12T23:06:45.871Z,10.00
2023-01-12T23:09:13.953Z,9.90
2023-01-12T23:11:41.986Z,10.00
2023-01-12T23:14:10.472Z,10.00
2023-01-12T23:16:38.625Z,10.00
2023-01-12T23:19:06.765Z,10.10
2023-01-12T23:21:34.975Z,10.10
2023-01-12T23:24:04.477Z,10.10
2023-01-12T23:26:33.980Z,10.10
2023-01-12T23:29:03.125Z,10.10
2023-01-12T23:31:33.312Z,10.10
2023-01-12T23:34:01.716Z,10.20
2023-01-12T23:36:31.054Z,10.10
2023-01-12T23:39:00.843Z,10.10
2023-01-12T23:41:31.589Z,10.10
2023-01-12T23:44:02.006Z,10.10
2023-01-12T23:46:32.581Z,10.10
2023-01-12T23:49:00.665Z,10.00
2023-01-12T23:51:30.305Z,10.00
2023-01-12T23:54:00.618Z,9.90
2023-01-12T23:56:33.265Z,9.90
2023-01-12T23:59:01.669Z,10.00
